Time;durP1;ratioP1;P1;durP2;ratioP2;P2;SDS_P1;SDS_P2;PMS_P1;PMS_P2;Temp;Humidity;BMP_temperature;BMP_pressure;BME280_temperature;BME280_humidity;BME280_pressure;Samples;Min_cycle;Max_cycle;Signal;HPM_P1;HPM_P2
2022/09/20 00:00:26;;;;;;;3.03;2.93;;;;;;;;;;5015979;28;20470;-70
2022/09/20 00:02:52;;;;;;;8.13;5.90;;;;;;;;;;5015696;28;20857;-70
2022/09/20 00:05:18;;;;;;;13.20;8.13;;;;;;;;;;4997988;28;20499;-70
2022/09/20 00:07:44;;;;;;;9.70;6.40;;;;;;;;;;5015603;28;20892;-70
2022/09/20 00:10:11;;;;;;;6.90;4.87;;;;;;;;;;5015594;28;20420;-71
2022/09/20 00:12:37;;;;;;;12.63;7.17;;;;;;;;;;5015655;28;20413;-71
2022/09/20 00:15:04;;;;;;;14.00;9.23;;;;;;;;;;5015714;28;20463;-70
2022/09/20 00:17:30;;;;;;;13.10;8.80;;;;;;;;;;5015642;28;20935;-71
2022/09/20 00:19:56;;;;;;;14.53;8.50;;;;;;;;;;5015513;28;20428;-71
2022/09/20 00:22:22;;;;;;;7.90;5.40;;;;;;;;;;5015429;28;20508;-70
2022/09/20 00:24:48;;;;;;;10.87;7.50;;;;;;;;;;5015118;28;20416;-71
2022/09/20 00:27:14;;;;;;;16.73;8.07;;;;;;;;;;5015273;28;20421;-70
2022/09/20 00:29:40;;;;;;;13.60;8.17;;;;;;;;;;4998068;28;20433;-71
2022/09/20 00:32:06;;;;;;;20.33;10.00;;;;;;;;;;5014949;28;20413;-70
2022/09/20 00:37:17;;;;;;;14.27;10.30;;;;;;;;;;5015183;28;20893;-71
2022/09/20 00:39:43;;;;;;;16.40;10.50;;;;;;;;;;5015260;28;20409;-70
2022/09/20 00:42:13;;;;;;;13.57;9.43;;;;;;;;;;4997825;28;20417;-70
2022/09/20 00:44:44;;;;;;;11.20;8.63;;;;;;;;;;5015091;28;20433;-70
2022/09/20 00:47:21;;;;;;;11.10;10.00;;;;;;;;;;5014814;28;20408;-70
2022/09/20 00:49:47;;;;;;;18.63;10.70;;;;;;;;;;4997561;28;20420;-69
2022/09/20 00:52:17;;;;;;;11.80;9.47;;;;;;;;;;5014823;28;20464;-70
2022/09/20 00:54:43;;;;;;;17.37;8.87;;;;;;;;;;5014859;28;20423;-70
2022/09/20 00:57:10;;;;;;;12.27;9.73;;;;;;;;;;5014472;28;21062;-70
2022/09/20 00:59:39;;;;;;;15.93;7.87;;;;;;;;;;4997479;28;20408;-69
2022/09/20 01:02:11;;;;;;;8.23;7.40;;;;;;;;;;5014580;28;20427;-69
2022/09/20 01:04:38;;;;;;;8.87;7.93;;;;;;;;;;4997121;28;20417;-69
2022/09/20 01:07:05;;;;;;;9.60;7.70;;;;;;;;;;5014844;28;20416;-70
2022/09/20 01:09:31;;;;;;;8.50;7.60;;;;;;;;;;5014745;28;20419;-69
2022/09/20 01:12:00;;;;;;;5.43;4.93;;;;;;;;;;5014554;28;20500;-70
2022/09/20 01:14:26;;;;;;;4.40;3.43;;;;;;;;;;5014638;28;20409;-70
2022/09/20 01:16:57;;;;;;;3.70;3.40;;;;;;;;;;5014415;28;20559;-70
2022/09/20 01:19:29;;;;;;;3.87;3.67;;;;;;;;;;5014475;28;20432;-70
2022/09/20 01:21:55;;;;;;;4.40;3.20;;;;;;;;;;5014302;28;20783;-70
2022/09/20 01:24:31;;;;;;;6.53;3.50;;;;;;;;;;5014332;28;20419;-70
2022/09/20 01:27:09;;;;;;;6.57;3.97;;;;;;;;;;5014180;28;20434;-70
2022/09/20 01:29:38;;;;;;;5.87;5.37;;;;;;;;;;5014358;28;20535;-70
2022/09/20 01:32:08;;;;;;;6.07;5.43;;;;;;;;;;5014045;28;20420;-70
2022/09/20 01:34:43;;;;;;;6.10;5.57;;;;;;;;;;4996495;28;20512;-70
2022/09/20 01:37:16;;;;;;;6.83;5.53;;;;;;;;;;5014056;28;20472;-70
2022/09/20 01:39:47;;;;;;;6.63;6.00;;;;;;;;;;5014262;28;20413;-70
2022/09/20 01:42:13;;;;;;;7.60;5.20;;;;;;;;;;5013822;28;20920;-70
2022/09/20 01:44:42;;;;;;;5.87;4.90;;;;;;;;;;5013977;28;20408;-70
2022/09/20 01:47:19;;;;;;;5.00;4.60;;;;;;;;;;5014055;28;20409;-70
2022/09/20 01:49:56;;;;;;;6.67;4.47;;;;;;;;;;4996248;28;20481;-70
2022/09/20 01:52:34;;;;;;;4.70;4.30;;;;;;;;;;4996135;28;20469;-70
2022/09/20 01:55:08;;;;;;;4.70;4.23;;;;;;;;;;5013761;28;20420;-70
2022/09/20 01:57:45;;;;;;;4.17;3.87;;;;;;;;;;5013854;28;20425;-70
2022/09/20 02:00:13;;;;;;;4.20;3.93;;;;;;;;;;5013570;28;20904;-70
2022/09/20 02:02:55;;;;;;;4.40;4.10;;;;;;;;;;5013867;28;20444;-70
2022/09/20 02:05:30;;;;;;;9.50;4.00;;;;;;;;;;5013885;28;20483;-70
2022/09/20 02:08:08;;;;;;;4.63;4.23;;;;;;;;;;5013644;28;20405;-70
2022/09/20 02:10:41;;;;;;;4.60;3.67;;;;;;;;;;5013467;28;20487;-70
2022/09/20 02:13:15;;;;;;;4.77;4.10;;;;;;;;;;5013972;28;20870;-70
2022/09/20 02:15:46;;;;;;;4.40;3.73;;;;;;;;;;5013587;28;20459;-70
2022/09/20 02:18:24;;;;;;;5.60;4.03;;;;;;;;;;5013476;28;20539;-70
2022/09/20 02:21:09;;;;;;;3.97;3.67;;;;;;;;;;5012769;28;20911;-70
2022/09/20 02:24:07;;;;;;;3.80;3.50;;;;;;;;;;4995889;28;20452;-69
2022/09/20 02:26:40;;;;;;;11.53;3.70;;;;;;;;;;4943723;28;20425;-70
2022/09/20 02:29:32;;;;;;;3.80;3.50;;;;;;;;;;5013385;28;20917;-70
2022/09/20 02:32:17;;;;;;;4.60;3.80;;;;;;;;;;5013331;28;20412;-70
2022/09/20 02:34:52;;;;;;;3.27;3.17;;;;;;;;;;5013291;28;20423;-69
2022/09/20 02:37:31;;;;;;;3.30;3.20;;;;;;;;;;5012752;28;20554;-70
2022/09/20 02:40:20;;;;;;;4.83;3.70;;;;;;;;;;5013344;28;20745;-70
2022/09/20 02:42:46;;;;;;;4.20;3.90;;;;;;;;;;5000444;28;20436;-69
2022/09/20 02:45:22;;;;;;;4.00;3.60;;;;;;;;;;5013509;28;20433;-69
2022/09/20 02:47:48;;;;;;;6.20;3.70;;;;;;;;;;5013502;28;20416;-70
2022/09/20 02:50:24;;;;;;;6.90;3.97;;;;;;;;;;5013039;28;20427;-70
2022/09/20 02:52:55;;;;;;;3.97;3.50;;;;;;;;;;5013008;28;20472;-70
2022/09/20 02:55:42;;;;;;;4.03;3.50;;;;;;;;;;5013075;28;20464;-70
2022/09/20 02:58:26;;;;;;;9.80;3.30;;;;;;;;;;4963811;28;20491;-70
2022/09/20 03:00:52;;;;;;;3.77;3.47;;;;;;;;;;4995600;28;20852;-70
2022/09/20 03:03:26;;;;;;;5.00;3.80;;;;;;;;;;5013302;28;20404;-70
2022/09/20 03:06:13;;;;;;;3.47;3.20;;;;;;;;;;5012976;28;20782;-70
2022/09/20 03:08:58;;;;;;;5.20;3.70;;;;;;;;;;5012914;28;20408;-70
2022/09/20 03:11:43;;;;;;;4.67;3.33;;;;;;;;;;5013117;28;20888;-70
2022/09/20 03:14:17;;;;;;;10.03;3.53;;;;;;;;;;4995663;28;20452;-70
2022/09/20 03:16:52;;;;;;;3.57;3.23;;;;;;;;;;5012943;28;20546;-70
2022/09/20 03:19:36;;;;;;;4.43;3.00;;;;;;;;;;5012948;28;20478;-70
2022/09/20 03:22:21;;;;;;;4.57;3.00;;;;;;;;;;5012803;28;20400;-70
2022/09/20 03:24:56;;;;;;;6.33;3.03;;;;;;;;;;5012937;28;20550;-70
2022/09/20 03:27:26;;;;;;;3.27;3.00;;;;;;;;;;4995340;28;20478;-70
2022/09/20 03:30:14;;;;;;;3.20;2.40;;;;;;;;;;5013237;28;20405;-70
2022/09/20 03:32:46;;;;;;;5.27;2.30;;;;;;;;;;4999186;28;20428;-69
2022/09/20 03:35:30;;;;;;;3.00;2.60;;;;;;;;;;4998826;28;20949;-70
2022/09/20 03:37:56;;;;;;;9.03;2.83;;;;;;;;;;5016390;28;20417;-70
2022/09/20 03:40:36;;;;;;;2.93;2.30;;;;;;;;;;4998646;28;20862;-70
2022/09/20 03:43:19;;;;;;;4.43;3.40;;;;;;;;;;5016090;28;20993;-70
2022/09/20 03:45:57;;;;;;;2.80;2.60;;;;;;;;;;5016061;28;20754;-70
2022/09/20 03:48:29;;;;;;;6.53;3.57;;;;;;;;;;4998608;28;20439;-69
2022/09/20 03:50:55;;;;;;;3.43;3.13;;;;;;;;;;5015902;28;20428;-71
2022/09/20 03:53:27;;;;;;;3.43;2.63;;;;;;;;;;4998172;28;20820;-71
2022/09/20 03:56:08;;;;;;;5.40;2.70;;;;;;;;;;4998184;28;20472;-71
2022/09/20 03:58:53;;;;;;;3.07;2.87;;;;;;;;;;4998437;28;20413;-71
2022/09/20 04:01:38;;;;;;;10.63;3.90;;;;;;;;;;5016087;28;20475;-71
2022/09/20 04:04:22;;;;;;;3.40;3.17;;;;;;;;;;5015945;28;20482;-71
2022/09/20 04:07:07;;;;;;;14.23;8.30;;;;;;;;;;5015921;28;20482;-71
2022/09/20 04:09:51;;;;;;;5.50;3.77;;;;;;;;;;5015763;28;20419;-71
2022/09/20 04:12:36;;;;;;;3.47;3.20;;;;;;;;;;5015695;28;20416;-71
2022/09/20 04:15:25;;;;;;;5.07;3.40;;;;;;;;;;5015557;28;20496;-71
2022/09/20 04:18:00;;;;;;;2.93;2.83;;;;;;;;;;5015593;28;20896;-71
2022/09/20 04:20:33;;;;;;;2.57;2.57;;;;;;;;;;5015821;28;20427;-71
2022/09/20 04:23:04;;;;;;;3.30;3.00;;;;;;;;;;4997936;28;20420;-71
2022/09/20 04:25:36;;;;;;;2.63;2.53;;;;;;;;;;5015448;28;20412;-71
2022/09/20 04:28:06;;;;;;;5.77;2.83;;;;;;;;;;4997902;28;20904;-71
2022/09/20 04:30:36;;;;;;;3.10;2.90;;;;;;;;;;4997607;28;20784;-70
2022/09/20 04:33:11;;;;;;;2.50;2.30;;;;;;;;;;5015102;28;20372;-71
2022/09/20 04:38:34;;;;;;;3.70;2.83;;;;;;;;;;5015061;28;20493;-71
2022/09/20 04:41:10;;;;;;;2.33;2.20;;;;;;;;;;5015425;28;20408;-71
2022/09/20 04:43:36;;;;;;;3.30;2.00;;;;;;;;;;5014670;28;20405;-71
2022/09/20 04:46:21;;;;;;;7.93;2.07;;;;;;;;;;5015109;28;20442;-71
2022/09/20 04:49:15;;;;;;;2.53;2.30;;;;;;;;;;5015111;28;20450;-71
2022/09/20 04:51:47;;;;;;;8.23;2.83;;;;;;;;;;4997139;28;20877;-71
2022/09/20 04:54:33;;;;;;;4.20;3.00;;;;;;;;;;4997257;28;20484;-71
2022/09/20 04:57:18;;;;;;;4.70;2.70;;;;;;;;;;4997060;28;20476;-71
2022/09/20 05:00:00;;;;;;;7.17;2.43;;;;;;;;;;4997159;28;20443;-69
2022/09/20 05:02:41;;;;;;;2.90;2.60;;;;;;;;;;5014920;28;20411;-71
2022/09/20 05:05:34;;;;;;;2.40;2.23;;;;;;;;;;5014897;28;20425;-71
2022/09/20 05:08:19;;;;;;;2.23;2.13;;;;;;;;;;4961835;28;20475;-71
2022/09/20 05:11:10;;;;;;;2.77;2.40;;;;;;;;;;5014773;28;20415;-71
2022/09/20 05:13:49;;;;;;;3.10;2.00;;;;;;;;;;4997078;28;20798;-70
2022/09/20 05:16:22;;;;;;;2.30;2.20;;;;;;;;;;4996939;28;20471;-70
2022/09/20 05:19:06;;;;;;;2.67;2.47;;;;;;;;;;5014637;28;20403;-70
2022/09/20 05:21:35;;;;;;;3.80;3.43;;;;;;;;;;5014598;28;20407;-70
2022/09/20 05:24:09;;;;;;;3.67;3.40;;;;;;;;;;5014518;28;20383;-70
2022/09/20 05:26:51;;;;;;;3.40;3.10;;;;;;;;;;5014470;28;20408;-70
2022/09/20 05:29:49;;;;;;;5.07;2.90;;;;;;;;;;5014474;28;20412;-70
2022/09/20 05:32:23;;;;;;;3.47;3.10;;;;;;;;;;4960914;28;20495;-72
2022/09/20 05:34:58;;;;;;;5.60;2.80;;;;;;;;;;4996787;28;20562;-71
2022/09/20 05:37:30;;;;;;;7.47;2.93;;;;;;;;;;4996678;28;20476;-71
2022/09/20 05:40:13;;;;;;;3.03;2.50;;;;;;;;;;4996656;28;20440;-70
2022/09/20 05:42:48;;;;;;;5.40;3.40;;;;;;;;;;5014183;28;20495;-71
2022/09/20 05:45:17;;;;;;;6.40;4.23;;;;;;;;;;5014151;28;20420;-70
2022/09/20 05:47:49;;;;;;;4.63;4.03;;;;;;;;;;5014052;28;20409;-72
2022/09/20 05:50:26;;;;;;;5.80;5.20;;;;;;;;;;5014102;28;20526;-71
2022/09/20 05:52:57;;;;;;;11.53;8.27;;;;;;;;;;5013873;28;20475;-72
2022/09/20 05:55:32;;;;;;;9.47;8.50;;;;;;;;;;4996322;28;20439;-70
2022/09/20 05:58:04;;;;;;;9.03;6.93;;;;;;;;;;5013939;28;20408;-70
2022/09/20 06:00:33;;;;;;;8.20;6.80;;;;;;;;;;5013971;28;20488;-71
2022/09/20 06:03:08;;;;;;;8.40;5.20;;;;;;;;;;5013960;28;20868;-71
2022/09/20 06:05:57;;;;;;;6.53;4.70;;;;;;;;;;5013890;28;20471;-71
2022/09/20 06:08:26;;;;;;;4.10;3.70;;;;;;;;;;5013823;28;20398;-71
2022/09/20 06:11:11;;;;;;;2.93;2.53;;;;;;;;;;5013850;28;20759;-73
2022/09/20 06:14:00;;;;;;;2.60;2.40;;;;;;;;;;5013796;28;20374;-71
2022/09/20 06:16:49;;;;;;;6.53;3.00;;;;;;;;;;5013731;28;20445;-71
2022/09/20 06:19:26;;;;;;;2.90;2.63;;;;;;;;;;4968342;28;20923;-70
2022/09/20 06:21:54;;;;;;;3.90;3.53;;;;;;;;;;5013640;28;20408;-70
2022/09/20 06:24:26;;;;;;;3.43;2.57;;;;;;;;;;5013489;28;20428;-71
2022/09/20 06:26:54;;;;;;;3.30;2.83;;;;;;;;;;5013580;28;20405;-70
2022/09/20 06:29:29;;;;;;;3.30;3.10;;;;;;;;;;5013616;28;21008;-70
2022/09/20 06:31:54;;;;;;;2.50;2.40;;;;;;;;;;5013506;28;20419;-71
2022/09/20 06:34:21;;;;;;;2.83;2.73;;;;;;;;;;5013580;28;20451;-71
2022/09/20 06:42:31;;;;;;;9.63;5.53;;;;;;;;;;5013563;28;20424;-71
2022/09/20 06:44:57;;;;;;;5.40;3.90;;;;;;;;;;5013471;28;20436;-71
2022/09/20 06:47:24;;;;;;;9.83;4.80;;;;;;;;;;5013377;28;20411;-74
2022/09/20 06:49:51;;;;;;;4.37;3.60;;;;;;;;;;4995799;28;20421;-69
2022/09/20 06:52:18;;;;;;;6.20;3.90;;;;;;;;;;5013238;28;20500;-69
2022/09/20 06:54:45;;;;;;;18.77;4.10;;;;;;;;;;4995761;28;20431;-69
2022/09/20 06:57:14;;;;;;;6.63;3.73;;;;;;;;;;5013271;28;20967;-70
2022/09/20 06:59:40;;;;;;;6.77;4.03;;;;;;;;;;4995737;28;20428;-70
2022/09/20 07:02:07;;;;;;;5.00;3.83;;;;;;;;;;5013283;28;20408;-70
2022/09/20 07:04:33;;;;;;;8.97;3.77;;;;;;;;;;4995736;28;20795;-70
2022/09/20 07:07:00;;;;;;;8.43;3.10;;;;;;;;;;5016292;28;20392;-69
2022/09/20 07:09:26;;;;;;;5.93;3.90;;;;;;;;;;4999403;28;20482;-69
2022/09/20 07:11:54;;;;;;;5.07;3.10;;;;;;;;;;5017051;28;20896;-69
2022/09/20 07:14:20;;;;;;;6.90;3.13;;;;;;;;;;5016963;28;20411;-69
2022/09/20 07:16:46;;;;;;;4.57;3.10;;;;;;;;;;5016765;28;20571;-69
2022/09/20 07:19:12;;;;;;;4.70;3.00;;;;;;;;;;4999170;28;20970;-69
2022/09/20 07:21:38;;;;;;;12.47;3.73;;;;;;;;;;5016755;28;20408;-70
2022/09/20 07:24:04;;;;;;;6.90;3.10;;;;;;;;;;5016781;28;20403;-67
2022/09/20 07:26:30;;;;;;;6.23;2.73;;;;;;;;;;5016670;28;20416;-67
2022/09/20 07:28:57;;;;;;;13.83;3.13;;;;;;;;;;4998854;28;20790;-67
2022/09/20 07:31:24;;;;;;;8.70;2.83;;;;;;;;;;5016964;28;20819;-69
2022/09/20 07:33:50;;;;;;;12.17;2.50;;;;;;;;;;4998970;28;20423;-70
2022/09/20 07:36:16;;;;;;;3.13;2.70;;;;;;;;;;5016480;28;20468;-68
2022/09/20 07:38:43;;;;;;;5.47;3.20;;;;;;;;;;5016452;28;20416;-70
2022/09/20 07:41:09;;;;;;;3.40;2.30;;;;;;;;;;4998827;28;20435;-69
2022/09/20 07:43:36;;;;;;;6.50;2.70;;;;;;;;;;5016363;28;20413;-69
2022/09/20 07:46:02;;;;;;;5.47;2.97;;;;;;;;;;5016428;28;20412;-68
2022/09/20 07:48:32;;;;;;;9.27;2.80;;;;;;;;;;5016332;28;20421;-68
2022/09/20 07:51:01;;;;;;;5.87;2.20;;;;;;;;;;5016226;28;20421;-69
2022/09/20 07:53:27;;;;;;;7.77;2.43;;;;;;;;;;5016194;28;20837;-68
2022/09/20 07:55:59;;;;;;;6.40;2.67;;;;;;;;;;5015882;28;20467;-68
2022/09/20 07:58:29;;;;;;;9.47;2.60;;;;;;;;;;5016018;28;20954;-69
2022/09/20 08:00:56;;;;;;;2.13;2.03;;;;;;;;;;4998409;28;20429;-69
2022/09/20 08:03:22;;;;;;;6.30;2.30;;;;;;;;;;5015912;28;20443;-68
2022/09/20 08:05:49;;;;;;;8.80;2.50;;;;;;;;;;5015909;28;20478;-69
2022/09/20 08:08:16;;;;;;;4.07;3.10;;;;;;;;;;5016076;28;20496;-70
2022/09/20 08:10:42;;;;;;;3.10;2.53;;;;;;;;;;5016072;28;20419;-70
2022/09/20 08:13:09;;;;;;;6.73;2.77;;;;;;;;;;5015892;28;20427;-69
2022/09/20 08:15:35;;;;;;;10.87;3.10;;;;;;;;;;5015743;28;20460;-70
2022/09/20 08:18:01;;;;;;;6.90;3.40;;;;;;;;;;5014630;28;20506;-71
2022/09/20 08:20:27;;;;;;;3.40;2.20;;;;;;;;;;5015911;28;20887;-70
2022/09/20 08:22:54;;;;;;;8.03;3.63;;;;;;;;;;5015693;28;20440;-72
2022/09/20 08:25:20;;;;;;;4.90;2.60;;;;;;;;;;4997960;28;20793;-71
2022/09/20 08:27:52;;;;;;;10.83;2.70;;;;;;;;;;5015402;28;20420;-71
2022/09/20 08:30:18;;;;;;;4.70;2.87;;;;;;;;;;5015503;28;20451;-70
2022/09/20 08:32:44;;;;;;;3.80;2.80;;;;;;;;;;5015400;28;20413;-69
2022/09/20 08:35:10;;;;;;;5.50;2.90;;;;;;;;;;5015300;28;20826;-70
2022/09/20 08:37:37;;;;;;;8.97;2.73;;;;;;;;;;5015266;28;20463;-71
2022/09/20 08:40:03;;;;;;;21.13;3.60;;;;;;;;;;5015355;28;20427;-69
2022/09/20 08:42:30;;;;;;;5.83;2.63;;;;;;;;;;5015259;28;20409;-70
2022/09/20 08:44:59;;;;;;;5.47;3.10;;;;;;;;;;4997626;28;20980;-71
2022/09/20 08:47:27;;;;;;;3.40;2.90;;;;;;;;;;5015214;28;20924;-70
2022/09/20 08:49:53;;;;;;;4.57;2.90;;;;;;;;;;4997495;28;20834;-69
2022/09/20 08:52:22;;;;;;;6.73;2.70;;;;;;;;;;5014944;28;21031;-69
2022/09/20 08:54:48;;;;;;;4.50;2.43;;;;;;;;;;5015071;28;20835;-69
2022/09/20 08:57:15;;;;;;;6.30;2.30;;;;;;;;;;5014980;28;20551;-70
2022/09/20 08:59:41;;;;;;;4.00;2.73;;;;;;;;;;4997396;28;20424;-69
2022/09/20 09:02:15;;;;;;;7.47;2.50;;;;;;;;;;5014958;28;20417;-70
2022/09/20 09:04:43;;;;;;;4.20;2.03;;;;;;;;;;5014845;28;20413;-68
2022/09/20 09:07:12;;;;;;;10.03;2.70;;;;;;;;;;5014928;28;20408;-73
2022/09/20 09:09:40;;;;;;;5.90;2.37;;;;;;;;;;5014814;28;20496;-73
2022/09/20 09:12:06;;;;;;;23.67;3.07;;;;;;;;;;5014835;28;20398;-72
2022/09/20 09:14:54;;;;;;;5.73;2.83;;;;;;;;;;5014706;28;20912;-69
2022/09/20 09:17:21;;;;;;;3.27;2.80;;;;;;;;;;5014670;28;20476;-72
2022/09/20 09:19:50;;;;;;;7.37;2.17;;;;;;;;;;5014650;28;20506;-69
2022/09/20 09:22:39;;;;;;;4.90;1.70;;;;;;;;;;5014610;28;20435;-69
2022/09/20 09:25:15;;;;;;;5.70;1.87;;;;;;;;;;5002223;28;20434;-69
2022/09/20 09:27:52;;;;;;;4.23;2.13;;;;;;;;;;5014501;28;20410;-73
2022/09/20 09:30:20;;;;;;;4.50;1.83;;;;;;;;;;5014312;28;20395;-66
2022/09/20 09:32:46;;;;;;;9.53;2.20;;;;;;;;;;5014363;28;20411;-70
2022/09/20 09:35:30;;;;;;;6.00;1.93;;;;;;;;;;5014276;28;20437;-69
2022/09/20 09:37:58;;;;;;;2.37;1.67;;;;;;;;;;5014293;28;20427;-70
2022/09/20 09:40:25;;;;;;;4.30;2.13;;;;;;;;;;5014266;28;20454;-71
2022/09/20 09:42:54;;;;;;;44.63;4.13;;;;;;;;;;5014231;28;20415;-71
2022/09/20 09:45:37;;;;;;;8.57;2.57;;;;;;;;;;5014188;28;20463;-72
2022/09/20 09:48:16;;;;;;;4.00;2.10;;;;;;;;;;5014198;28;20455;-73
2022/09/20 09:50:42;;;;;;;4.60;2.00;;;;;;;;;;4996785;28;20413;-75
2022/09/20 09:53:10;;;;;;;4.30;2.20;;;;;;;;;;5014012;28;20483;-74
2022/09/20 09:55:56;;;;;;;5.20;2.40;;;;;;;;;;4996449;28;20471;-75
2022/09/20 09:58:38;;;;;;;6.67;2.10;;;;;;;;;;4996449;28;20445;-75
2022/09/20 10:01:06;;;;;;;4.77;1.70;;;;;;;;;;4996408;28;20428;-75
2022/09/20 10:03:36;;;;;;;6.37;1.77;;;;;;;;;;5014003;28;20450;-75
2022/09/20 10:06:03;;;;;;;6.50;2.40;;;;;;;;;;5013858;28;20424;-76
2022/09/20 10:08:29;;;;;;;1.37;1.37;;;;;;;;;;5013872;28;20929;-75
2022/09/20 10:11:01;;;;;;;2.83;1.50;;;;;;;;;;5013827;28;20526;-74
2022/09/20 10:13:34;;;;;;;5.90;2.20;;;;;;;;;;5013750;28;20981;-74
2022/09/20 10:16:02;;;;;;;7.07;2.20;;;;;;;;;;5013702;28;20518;-75
2022/09/20 10:18:47;;;;;;;4.13;1.80;;;;;;;;;;4996384;28;20769;-73
2022/09/20 10:21:28;;;;;;;1.63;1.53;;;;;;;;;;5013683;28;20417;-74
2022/09/20 10:24:00;;;;;;;2.47;1.73;;;;;;;;;;4996024;28;20839;-74
2022/09/20 10:26:35;;;;;;;4.93;1.77;;;;;;;;;;5013696;28;20430;-74
2022/09/20 10:29:01;;;;;;;2.03;1.70;;;;;;;;;;5013622;28;20408;-74
2022/09/20 10:31:45;;;;;;;4.10;1.40;;;;;;;;;;5013542;28;20420;-75
2022/09/20 10:34:11;;;;;;;4.30;2.00;;;;;;;;;;5013517;28;20444;-75
2022/09/20 10:36:53;;;;;;;6.27;1.43;;;;;;;;;;5013408;28;20502;-75
2022/09/20 10:39:26;;;;;;;4.73;1.80;;;;;;;;;;5013551;28;20902;-74
2022/09/20 10:44:57;;;;;;;4.10;1.87;;;;;;;;;;5017572;28;20400;-72
2022/09/20 10:47:34;;;;;;;3.60;1.90;;;;;;;;;;4999817;28;20509;-73
2022/09/20 10:50:14;;;;;;;2.40;1.73;;;;;;;;;;5017470;28;20432;-75
2022/09/20 10:52:47;;;;;;;1.97;1.60;;;;;;;;;;5017230;28;20500;-74
2022/09/20 10:55:38;;;;;;;2.80;1.80;;;;;;;;;;5017311;28;20399;-68
2022/09/20 10:58:26;;;;;;;4.10;1.67;;;;;;;;;;5017446;28;20504;-73
2022/09/20 11:01:01;;;;;;;3.50;1.67;;;;;;;;;;5017223;28;20411;-73
2022/09/20 11:03:27;;;;;;;3.63;1.90;;;;;;;;;;5017213;28;20810;-71
2022/09/20 11:05:59;;;;;;;2.40;1.73;;;;;;;;;;4999459;28;20438;-72
2022/09/20 11:08:31;;;;;;;2.27;1.60;;;;;;;;;;5017093;28;20493;-71
2022/09/20 11:11:00;;;;;;;1.73;1.60;;;;;;;;;;5017086;28;20406;-71
2022/09/20 11:13:33;;;;;;;3.90;2.03;;;;;;;;;;5017025;28;20402;-71
2022/09/20 11:15:59;;;;;;;4.53;1.13;;;;;;;;;;5016927;28;20491;-72
2022/09/20 11:18:32;;;;;;;5.43;1.57;;;;;;;;;;4999319;28;20854;-71
2022/09/20 11:21:07;;;;;;;3.40;1.40;;;;;;;;;;5016916;28;20783;-71
2022/09/20 11:23:43;;;;;;;4.83;1.47;;;;;;;;;;5016881;28;20443;-74
2022/09/20 11:26:30;;;;;;;6.17;1.60;;;;;;;;;;5016766;28;20417;-74
2022/09/20 11:29:01;;;;;;;1.57;1.40;;;;;;;;;;5000414;28;20434;-72
2022/09/20 11:31:47;;;;;;;1.63;1.53;;;;;;;;;;5016567;28;20414;-74
2022/09/20 11:34:17;;;;;;;3.40;1.50;;;;;;;;;;5016621;28;20427;-72
2022/09/20 11:36:51;;;;;;;2.77;1.23;;;;;;;;;;5016528;28;20479;-71
2022/09/20 11:39:21;;;;;;;1.30;1.30;;;;;;;;;;5016565;28;20396;-72
2022/09/20 11:41:48;;;;;;;3.63;1.27;;;;;;;;;;4998942;28;20423;-72
2022/09/20 11:44:16;;;;;;;2.77;1.60;;;;;;;;;;5016484;28;20428;-72
2022/09/20 11:46:55;;;;;;;3.77;1.40;;;;;;;;;;5016502;28;20749;-72
2022/09/20 11:49:30;;;;;;;1.10;1.00;;;;;;;;;;4998748;28;20427;-70
2022/09/20 11:52:05;;;;;;;1.80;0.80;;;;;;;;;;5016021;28;20510;-72
2022/09/20 11:54:53;;;;;;;2.93;1.40;;;;;;;;;;5016334;28;20420;-70
2022/09/20 11:57:19;;;;;;;1.57;0.90;;;;;;;;;;4998560;28;20482;-70
2022/09/20 11:59:53;;;;;;;2.77;1.00;;;;;;;;;;5016178;28;20406;-70
2022/09/20 12:02:19;;;;;;;2.53;0.97;;;;;;;;;;5016178;28;20881;-71
2022/09/20 12:04:51;;;;;;;1.57;0.90;;;;;;;;;;5016001;28;20420;-72
2022/09/20 12:07:17;;;;;;;2.73;0.90;;;;;;;;;;5016021;28;20396;-72
2022/09/20 12:09:45;;;;;;;1.00;0.90;;;;;;;;;;5015917;28;20402;-70
2022/09/20 12:12:19;;;;;;;1.43;0.70;;;;;;;;;;5016023;28;20401;-72
2022/09/20 12:14:52;;;;;;;1.00;0.70;;;;;;;;;;5015874;28;20891;-70
2022/09/20 12:17:37;;;;;;;0.50;0.50;;;;;;;;;;5015701;28;20475;-73
2022/09/20 12:20:23;;;;;;;2.17;0.90;;;;;;;;;;5015766;28;20429;-72
2022/09/20 12:22:49;;;;;;;0.90;0.80;;;;;;;;;;5015580;28;20801;-75
2022/09/20 12:25:50;;;;;;;0.80;0.80;;;;;;;;;;5015708;28;20422;-75
2022/09/20 12:28:16;;;;;;;0.50;0.50;;;;;;;;;;4917071;29;20437;-74
2022/09/20 12:30:42;;;;;;;1.67;1.03;;;;;;;;;;4994949;28;20436;-77
2022/09/20 12:33:19;;;;;;;0.60;0.60;;;;;;;;;;5015581;28;20777;-75
2022/09/20 12:35:52;;;;;;;1.60;0.87;;;;;;;;;;5015696;28;20460;-72
2022/09/20 12:38:20;;;;;;;0.80;0.60;;;;;;;;;;5015417;28;20896;-71
2022/09/20 12:41:06;;;;;;;0.70;0.70;;;;;;;;;;5015373;28;20413;-72
2022/09/20 12:43:33;;;;;;;0.70;0.70;;;;;;;;;;5015476;28;20413;-76
2022/09/20 12:45:59;;;;;;;1.10;0.63;;;;;;;;;;5015359;28;20822;-76
2022/09/20 12:48:26;;;;;;;0.80;0.60;;;;;;;;;;5015325;28;20496;-74
2022/09/20 12:54:06;;;;;;;2.00;0.83;;;;;;;;;;5014892;28;20978;-76
2022/09/20 12:56:35;;;;;;;0.60;0.60;;;;;;;;;;4997385;28;20494;-74
2022/09/20 12:59:04;;;;;;;1.10;1.10;;;;;;;;;;5015058;28;20401;-76
2022/09/20 13:01:31;;;;;;;1.00;1.00;;;;;;;;;;5015002;28;20938;-77
2022/09/20 13:04:17;;;;;;;2.50;1.07;;;;;;;;;;5014571;28;20491;-78
2022/09/20 13:06:44;;;;;;;0.80;0.77;;;;;;;;;;4997188;28;20417;-80
2022/09/20 13:09:12;;;;;;;1.23;1.13;;;;;;;;;;5015380;28;20890;-74
2022/09/20 13:11:41;;;;;;;2.30;1.00;;;;;;;;;;5014963;28;20403;-80
2022/09/20 13:14:07;;;;;;;1.50;1.00;;;;;;;;;;5014894;28;20415;-78
2022/09/20 13:16:35;;;;;;;3.37;0.80;;;;;;;;;;5014945;28;20521;-77
2022/09/20 13:19:20;;;;;;;2.60;0.67;;;;;;;;;;5014850;28;20436;-76
2022/09/20 13:22:07;;;;;;;3.33;1.40;;;;;;;;;;5015081;28;20405;-77
2022/09/20 13:24:36;;;;;;;2.57;1.00;;;;;;;;;;4965579;28;20426;-73
2022/09/20 13:27:07;;;;;;;2.93;0.90;;;;;;;;;;4997328;28;20479;-77
2022/09/20 13:29:34;;;;;;;4.67;0.97;;;;;;;;;;5015943;28;20401;-80
2022/09/20 13:32:19;;;;;;;1.47;0.80;;;;;;;;;;5015723;28;20412;-79
2022/09/20 13:34:45;;;;;;;2.50;1.00;;;;;;;;;;5015029;28;20500;-79
2022/09/20 13:37:20;;;;;;;1.80;0.77;;;;;;;;;;5014831;28;20529;-79
2022/09/20 13:39:46;;;;;;;1.43;0.87;;;;;;;;;;5014457;28;20412;-74
2022/09/20 13:42:18;;;;;;;1.00;0.63;;;;;;;;;;5014748;28;20415;-74
2022/09/20 13:44:44;;;;;;;2.93;0.80;;;;;;;;;;5014265;28;20431;-76
2022/09/20 13:47:23;;;;;;;2.13;1.03;;;;;;;;;;5014220;28;20463;-73
2022/09/20 13:49:49;;;;;;;0.83;0.80;;;;;;;;;;5014115;28;20426;-72
2022/09/20 13:52:22;;;;;;;2.30;1.00;;;;;;;;;;5013882;28;20472;-74
2022/09/20 13:54:48;;;;;;;1.40;0.80;;;;;;;;;;5014091;28;20418;-76
2022/09/20 13:57:34;;;;;;;0.87;0.87;;;;;;;;;;5013963;28;20474;-81
2022/09/20 14:00:00;;;;;;;1.87;0.90;;;;;;;;;;4996432;28;20433;-73
2022/09/20 14:02:26;;;;;;;4.37;0.97;;;;;;;;;;5014132;28;20430;-73
2022/09/20 14:04:54;;;;;;;2.50;0.70;;;;;;;;;;5013987;28;20415;-75
2022/09/20 14:07:20;;;;;;;0.77;0.77;;;;;;;;;;5013923;28;20816;-74
2022/09/20 14:09:46;;;;;;;0.93;0.60;;;;;;;;;;5013842;28;20409;-75
2022/09/20 14:12:13;;;;;;;0.97;0.80;;;;;;;;;;5013882;28;20794;-72
2022/09/20 14:14:39;;;;;;;0.90;0.83;;;;;;;;;;5013566;28;20446;-72
2022/09/20 14:17:07;;;;;;;0.80;0.80;;;;;;;;;;5013107;28;20476;-72
2022/09/20 14:19:36;;;;;;;1.17;0.70;;;;;;;;;;5013729;28;20422;-75
2022/09/20 14:22:06;;;;;;;0.80;0.80;;;;;;;;;;5013830;28;20463;-75
2022/09/20 14:24:34;;;;;;;2.37;1.73;;;;;;;;;;5013673;28;20426;-76
2022/09/20 14:27:14;;;;;;;2.10;0.97;;;;;;;;;;5013726;28;20478;-68
2022/09/20 14:29:41;;;;;;;1.00;1.00;;;;;;;;;;4995954;28;20414;-71
2022/09/20 14:32:16;;;;;;;1.30;0.87;;;;;;;;;;5013678;28;20418;-70
2022/09/20 14:34:43;;;;;;;1.13;0.87;;;;;;;;;;5013537;28;20531;-74
2022/09/20 14:37:13;;;;;;;2.63;0.80;;;;;;;;;;5013542;28;20474;-75
2022/09/20 14:39:47;;;;;;;1.33;0.70;;;;;;;;;;5013559;28;20445;-73
2022/09/20 14:42:34;;;;;;;1.10;0.90;;;;;;;;;;5013594;28;20403;-75
2022/09/20 14:45:00;;;;;;;1.70;0.93;;;;;;;;;;5013370;28;20484;-73
2022/09/20 14:47:27;;;;;;;2.87;1.03;;;;;;;;;;5013503;28;20445;-75
2022/09/20 14:49:53;;;;;;;1.43;0.70;;;;;;;;;;5013650;28;20512;-74
2022/09/20 14:52:25;;;;;;;1.00;0.80;;;;;;;;;;5013116;28;20477;-75
2022/09/20 14:55:10;;;;;;;1.00;1.00;;;;;;;;;;5013342;28;20423;-74
2022/09/20 14:57:35;;;;;;;1.37;1.13;;;;;;;;;;5013244;28;20957;-76
2022/09/20 15:00:05;;;;;;;1.13;1.00;;;;;;;;;;5013351;28;20406;-75
2022/09/20 15:02:34;;;;;;;0.73;0.73;;;;;;;;;;5013306;28;20440;-75
2022/09/20 15:05:01;;;;;;;1.77;0.83;;;;;;;;;;5013345;28;20931;-73
2022/09/20 15:07:27;;;;;;;2.97;0.90;;;;;;;;;;5013089;28;20980;-73
2022/09/20 15:09:53;;;;;;;1.13;0.73;;;;;;;;;;5013553;28;20775;-74
2022/09/20 15:12:20;;;;;;;2.10;1.00;;;;;;;;;;5013217;28;20406;-73
2022/09/20 15:14:46;;;;;;;2.53;1.00;;;;;;;;;;5013277;28;20435;-73
2022/09/20 15:17:20;;;;;;;1.27;1.10;;;;;;;;;;5013042;28;20469;-76
2022/09/20 15:19:46;;;;;;;3.03;2.83;;;;;;;;;;5013074;28;20505;-77
2022/09/20 15:22:12;;;;;;;3.27;1.33;;;;;;;;;;4995573;28;20921;-77
2022/09/20 15:24:39;;;;;;;1.23;1.00;;;;;;;;;;5013123;28;20410;-75
2022/09/20 15:27:05;;;;;;;2.60;1.20;;;;;;;;;;5014510;28;20456;-77
2022/09/20 15:29:31;;;;;;;1.07;1.07;;;;;;;;;;5016773;28;20462;-79